DMU weather

Dimapur Airport
Dimapur, Nagaland, India

Public forecast

Using degrees Celsius for public forecast. Weather courtesy of forecast.io.

METAR (pilot weather report)

Report is more than 6 hours old.

Closest report is Imphal Airport, 67.8 nm (125.6 km) S. Retrieved 2019/08/24 12:00 UTC (1 day ago):

VEIM 241200Z 15004KT 5000 BR SCT018 BKN100 25/23 Q1007 NOSIG

TAF (pilot weather forecast)

Forecast is more than 6 hours old.

Closest forecast is Jorhat Airport, 55.3 nm (102.5 km) NNE. Retrieved 2019/08/25 12:30 UTC (9 hours ago):

TAF VEJT 250930Z 2512/2600 02005KT 6000 FEW025 SCT090 TEMPO 2512/2515 VRB02KT 6000 FEW025 FEW030TCU BKN250